createdAt,value
2018-07-21T00:00:53.306Z,17.35
2018-07-21T00:01:53.301Z,17.27
2018-07-21T00:02:53.284Z,17.28
2018-07-21T00:03:53.273Z,17.27
2018-07-21T00:04:53.269Z,17.21
2018-07-21T00:05:53.250Z,17.14
2018-07-21T00:06:53.248Z,17.17
2018-07-21T00:07:53.226Z,17.18
2018-07-21T00:08:53.215Z,17.14
2018-07-21T00:09:53.215Z,17.12
2018-07-21T00:10:53.192Z,17.12
2018-07-21T00:11:53.182Z,17.07
2018-07-21T00:12:53.170Z,17.18
2018-07-21T00:13:53.168Z,17.17
2018-07-21T00:14:53.154Z,17.14
2018-07-21T00:15:53.138Z,17.10
2018-07-21T00:16:53.124Z,17.07
2018-07-21T00:17:53.135Z,17.10
2018-07-21T00:18:53.104Z,17.07
2018-07-21T00:19:53.120Z,17.10
2018-07-21T00:20:53.083Z,17.10
2018-07-21T00:21:53.072Z,17.09
2018-07-21T00:22:53.058Z,17.05
2018-07-21T00:23:53.044Z,17.06
2018-07-21T00:24:53.047Z,17.10
2018-07-21T00:25:53.022Z,16.96
2018-07-21T00:26:53.022Z,17.10
2018-07-21T00:27:53.003Z,17.05
2018-07-21T00:28:52.988Z,17.06
2018-07-21T00:29:52.988Z,17.02
2018-07-21T00:30:52.965Z,16.96
2018-07-21T00:31:52.955Z,16.98
2018-07-21T00:32:52.962Z,16.90
2018-07-21T00:33:52.933Z,16.99
2018-07-21T00:34:52.933Z,16.95
2018-07-21T00:35:59.949Z,16.91
2018-07-21T00:36:52.899Z,16.87
2018-07-21T00:37:52.888Z,16.81
2018-07-21T00:38:52.879Z,16.95
2018-07-21T00:39:52.881Z,16.80
2018-07-21T00:40:52.856Z,16.82
2018-07-21T00:41:52.843Z,16.87
2018-07-21T00:42:52.840Z,16.81
2018-07-21T00:43:52.821Z,16.84
2018-07-21T00:44:52.827Z,16.87
2018-07-21T00:45:52.809Z,16.82
2018-07-21T00:46:52.791Z,16.84
2018-07-21T00:47:52.777Z,16.84
2018-07-21T00:48:52.764Z,16.88
2018-07-21T00:49:52.763Z,16.82
2018-07-21T00:50:52.746Z,16.78
2018-07-21T00:51:52.733Z,16.75
2018-07-21T00:52:52.720Z,16.77
2018-07-21T00:53:52.708Z,16.70
2018-07-21T00:54:52.709Z,16.69
2018-07-21T00:55:52.689Z,16.75
2018-07-21T00:56:52.682Z,16.70
2018-07-21T00:57:52.672Z,16.70
2018-07-21T00:58:52.654Z,16.66
2018-07-21T00:59:52.651Z,16.54
2018-07-21T01:00:52.633Z,16.63
2018-07-21T01:01:52.618Z,16.59
2018-07-21T01:02:52.614Z,16.60
2018-07-21T01:03:52.596Z,16.54
2018-07-21T01:04:52.618Z,16.59
2018-07-21T01:05:52.572Z,16.51
2018-07-21T01:06:52.589Z,16.55
2018-07-21T01:07:52.551Z,16.55
2018-07-21T01:08:52.540Z,16.52
2018-07-21T01:09:52.538Z,16.47
2018-07-21T01:10:52.526Z,16.51
2018-07-21T01:11:52.508Z,16.52
2018-07-21T01:12:52.493Z,16.54
2018-07-21T01:13:52.486Z,16.52
2018-07-21T01:14:52.478Z,16.45
2018-07-21T01:15:52.481Z,16.48
2018-07-21T01:16:52.452Z,16.44
2018-07-21T01:17:52.438Z,16.47
2018-07-21T01:18:52.428Z,16.44
2018-07-21T01:19:52.416Z,16.42
2018-07-21T01:20:52.417Z,16.37
2018-07-21T01:21:52.405Z,16.34
2018-07-21T01:22:52.384Z,16.32
2018-07-21T01:23:52.373Z,16.36
2018-07-21T01:24:52.364Z,16.25
2018-07-21T01:25:52.359Z,16.26
2018-07-21T01:26:52.347Z,16.16
2018-07-21T01:27:52.335Z,16.13
2018-07-21T01:28:52.317Z,16.16
2018-07-21T01:29:52.307Z,16.13
2018-07-21T01:30:52.309Z,16.03
2018-07-21T01:31:52.285Z,16.06
2018-07-21T01:32:52.271Z,16.11
2018-07-21T01:33:52.272Z,16.13
2018-07-21T01:34:52.249Z,15.98
2018-07-21T01:35:52.249Z,16.01
2018-07-21T01:36:52.231Z,16.01
2018-07-21T01:37:52.217Z,15.99
2018-07-21T01:38:52.206Z,16.06
2018-07-21T01:39:52.204Z,16.04
2018-07-21T01:40:52.195Z,15.98
2018-07-21T01:41:52.175Z,16.03
2018-07-21T01:42:52.162Z,15.98
2018-07-21T01:43:52.153Z,15.95
2018-07-21T01:44:52.140Z,15.92
2018-07-21T01:45:52.146Z,15.96
2018-07-21T01:46:52.123Z,15.93
2018-07-21T01:47:52.105Z,15.88
2018-07-21T01:48:52.094Z,15.86
2018-07-21T01:49:52.085Z,15.86
2018-07-21T01:50:52.088Z,15.81
2018-07-21T01:51:52.069Z,15.89
2018-07-21T01:52:52.053Z,15.85
2018-07-21T01:53:52.040Z,15.85
2018-07-21T01:54:52.027Z,15.88
2018-07-21T01:55:52.028Z,15.81
2018-07-21T01:56:52.007Z,15.88
2018-07-21T01:57:52.000Z,15.92
2018-07-21T01:58:51.984Z,15.81
2018-07-21T01:59:51.970Z,15.85
2018-07-21T02:00:51.975Z,15.85
2018-07-21T02:01:51.952Z,15.85
2018-07-21T02:02:51.940Z,15.86
2018-07-21T02:03:51.933Z,15.80
2018-07-21T02:04:51.918Z,15.80
2018-07-21T02:05:51.913Z,15.80
2018-07-21T02:06:51.900Z,15.86
2018-07-21T02:07:51.885Z,15.80
2018-07-21T02:08:51.870Z,15.74
2018-07-21T02:09:51.868Z,15.74
2018-07-21T02:10:51.864Z,15.77
2018-07-21T02:11:51.838Z,15.78
2018-07-21T02:12:51.828Z,15.80
2018-07-21T02:13:52.597Z,15.78
2018-07-21T02:14:51.806Z,15.68
2018-07-21T02:15:51.815Z,15.74
2018-07-21T02:16:51.783Z,15.68
2018-07-21T02:17:51.772Z,15.76
2018-07-21T02:18:51.759Z,15.76
2018-07-21T02:19:51.751Z,15.70
2018-07-21T02:20:51.750Z,15.70
2018-07-21T02:21:51.740Z,15.71
2018-07-21T02:22:51.719Z,15.62
2018-07-21T02:23:51.744Z,15.68
2018-07-21T02:24:51.697Z,15.67
2018-07-21T02:25:51.697Z,15.64
2018-07-21T02:26:51.671Z,15.62
2018-07-21T02:27:51.680Z,15.60
2018-07-21T02:28:51.648Z,15.52
2018-07-21T02:29:51.636Z,15.60
2018-07-21T02:30:51.639Z,15.51
2018-07-21T02:31:51.618Z,15.46
2018-07-21T02:32:51.603Z,15.41
2018-07-21T02:33:51.600Z,15.51
2018-07-21T02:34:51.582Z,15.53
2018-07-21T02:35:51.597Z,15.43
2018-07-21T02:36:51.561Z,15.41
2018-07-21T02:37:51.550Z,15.52
2018-07-21T02:38:51.536Z,15.41
2018-07-21T02:39:51.535Z,15.40
2018-07-21T02:40:51.515Z,15.40
2018-07-21T02:41:51.516Z,15.44
2018-07-21T02:42:51.492Z,15.43
2018-07-21T02:43:51.483Z,15.51
2018-07-21T02:44:51.477Z,15.41
2018-07-21T02:45:51.466Z,15.43
2018-07-21T02:46:51.461Z,15.46
2018-07-21T02:47:51.489Z,15.46
2018-07-21T02:48:51.428Z,15.44
2018-07-21T02:49:51.418Z,15.40
2018-07-21T02:50:51.403Z,15.34
2018-07-21T02:51:51.413Z,15.30
2018-07-21T02:52:51.380Z,15.28
2018-07-21T02:53:51.369Z,15.31
2018-07-21T02:54:51.362Z,15.28
2018-07-21T02:55:51.346Z,15.31
2018-07-21T02:56:51.357Z,15.30
2018-07-21T02:57:51.330Z,15.28
2018-07-21T02:58:51.314Z,15.28
2018-07-21T02:59:51.303Z,15.27
2018-07-21T03:00:51.295Z,15.23
2018-07-21T03:01:51.293Z,15.25
2018-07-21T03:02:51.268Z,15.18
2018-07-21T03:03:51.269Z,15.18
2018-07-21T03:04:51.248Z,15.19
2018-07-21T03:05:51.237Z,15.18
2018-07-21T03:06:51.243Z,15.23
2018-07-21T03:07:51.214Z,15.22
2018-07-21T03:08:51.203Z,15.19
2018-07-21T03:09:51.247Z,15.23
2018-07-21T03:10:51.192Z,15.13
2018-07-21T03:11:51.181Z,15.20
2018-07-21T03:12:51.162Z,15.13
2018-07-21T03:13:51.149Z,15.09
2018-07-21T03:14:51.139Z,15.19
2018-07-21T03:15:51.141Z,15.12
2018-07-21T03:16:51.125Z,15.12
2018-07-21T03:17:51.104Z,15.15
2018-07-21T03:18:51.091Z,15.18
2018-07-21T03:19:51.088Z,15.16
2018-07-21T03:20:51.071Z,15.25
2018-07-21T03:21:51.076Z,15.16
2018-07-21T03:22:51.045Z,15.12
2018-07-21T03:23:51.036Z,15.18
2018-07-21T03:24:51.023Z,15.20
2018-07-21T03:25:51.014Z,15.16
2018-07-21T03:26:51.021Z,15.19
2018-07-21T03:27:50.999Z,15.18
2018-07-21T03:28:50.979Z,15.18
2018-07-21T03:29:50.969Z,15.18
2018-07-21T03:30:50.993Z,15.20
2018-07-21T03:31:50.956Z,15.23
2018-07-21T03:32:50.936Z,15.18
2018-07-21T03:33:50.930Z,15.16
2018-07-21T03:34:50.913Z,15.22
2018-07-21T03:35:50.904Z,15.18
2018-07-21T03:36:50.900Z,15.16
2018-07-21T03:37:50.880Z,15.13
2018-07-21T03:38:50.867Z,15.18
2018-07-21T03:39:50.863Z,15.18
2018-07-21T03:40:50.864Z,15.19
2018-07-21T03:41:50.847Z,15.20
2018-07-21T03:42:50.825Z,15.16
2018-07-21T03:43:50.812Z,15.15
2018-07-21T03:44:50.803Z,15.19
2018-07-21T03:45:50.795Z,15.22
2018-07-21T03:46:50.790Z,15.18
2018-07-21T03:47:50.769Z,15.20
2018-07-21T03:48:50.756Z,15.20
2018-07-21T03:49:50.749Z,15.18
2018-07-21T03:50:50.733Z,15.15
2018-07-21T03:51:50.744Z,15.25
2018-07-21T03:52:50.713Z,15.18
2018-07-21T03:53:50.702Z,15.18
2018-07-21T03:54:50.690Z,15.28
2018-07-21T03:55:50.679Z,15.27
2018-07-21T03:56:50.677Z,15.27
2018-07-21T03:57:50.665Z,15.31
2018-07-21T03:58:50.647Z,15.30
2018-07-21T03:59:50.633Z,15.30
2018-07-21T04:00:50.621Z,15.30
2018-07-21T04:01:50.622Z,15.30
2018-07-21T04:02:50.601Z,15.30
2018-07-21T04:03:50.594Z,15.30
2018-07-21T04:04:50.579Z,15.37
2018-07-21T04:05:50.565Z,15.37
2018-07-21T04:06:50.568Z,15.40
2018-07-21T04:07:50.544Z,15.34
2018-07-21T04:08:50.556Z,15.40
2018-07-21T04:09:50.531Z,15.44
2018-07-21T04:10:50.514Z,15.44
2018-07-21T04:11:50.527Z,15.40
2018-07-21T04:12:50.487Z,15.38
2018-07-21T04:13:50.478Z,15.49
2018-07-21T04:14:50.469Z,15.52
2018-07-21T04:15:50.460Z,15.59
2018-07-21T04:16:50.443Z,15.49
2018-07-21T04:17:50.444Z,15.62
2018-07-21T04:18:50.420Z,15.62
2018-07-21T04:19:50.416Z,15.66
2018-07-21T04:20:50.399Z,15.68
2018-07-21T04:21:50.396Z,15.68
2018-07-21T04:22:50.388Z,15.76
2018-07-21T04:23:50.365Z,15.80
2018-07-21T04:24:50.357Z,15.85
2018-07-21T04:25:50.345Z,15.86
2018-07-21T04:26:50.333Z,15.96
2018-07-21T04:27:50.338Z,15.92
2018-07-21T04:28:50.313Z,15.95
2018-07-21T04:29:50.299Z,15.99
2018-07-21T04:30:50.290Z,16.06
2018-07-21T04:31:50.277Z,15.99
2018-07-21T04:32:50.282Z,16.10
2018-07-21T04:33:50.263Z,16.10
2018-07-21T04:34:50.244Z,16.11
2018-07-21T04:35:50.232Z,16.11
2018-07-21T04:36:50.228Z,16.22
2018-07-21T04:37:50.223Z,16.34
2018-07-21T04:38:50.205Z,16.33
2018-07-21T04:39:50.191Z,16.42
2018-07-21T04:40:50.175Z,16.37
2018-07-21T04:41:50.164Z,16.52
2018-07-21T04:42:50.165Z,16.50
2018-07-21T04:43:50.145Z,16.62
2018-07-21T04:44:50.132Z,16.62
2018-07-21T04:45:50.130Z,16.69
2018-07-21T04:46:50.109Z,16.70
2018-07-21T04:47:50.112Z,16.78
2018-07-21T04:48:50.086Z,16.81
2018-07-21T04:49:50.075Z,16.87
2018-07-21T04:50:50.065Z,16.90
2018-07-21T04:51:50.058Z,17.00
2018-07-21T04:52:50.059Z,17.02
2018-07-21T04:53:50.037Z,17.02
2018-07-21T04:54:50.022Z,17.10
2018-07-21T04:55:50.013Z,17.07
2018-07-21T04:56:49.997Z,17.09
2018-07-21T04:57:50.003Z,17.24
2018-07-21T04:58:49.974Z,17.25
2018-07-21T04:59:49.965Z,17.27
2018-07-21T05:00:50.106Z,17.32
2018-07-21T05:01:49.940Z,17.42
2018-07-21T05:02:49.938Z,17.53
2018-07-21T05:03:49.929Z,17.46
2018-07-21T05:04:49.905Z,17.55
2018-07-21T05:05:49.893Z,17.54
2018-07-21T05:06:49.884Z,17.65
2018-07-21T05:07:49.887Z,17.71
2018-07-21T05:08:49.868Z,17.80
2018-07-21T05:09:49.859Z,17.95
2018-07-21T05:10:49.838Z,17.94
2018-07-21T05:11:49.826Z,18.05
2018-07-21T05:12:49.830Z,18.01
2018-07-21T05:13:49.807Z,18.07
2018-07-21T05:14:49.798Z,18.20
2018-07-21T05:15:49.792Z,18.21
2018-07-21T05:16:49.776Z,18.23
2018-07-21T05:17:49.774Z,18.35
2018-07-21T05:18:49.752Z,18.46
2018-07-21T05:19:49.740Z,18.56
2018-07-21T05:20:49.733Z,18.54
2018-07-21T05:21:49.724Z,18.60
2018-07-21T05:22:49.718Z,18.62
2018-07-21T05:23:49.697Z,18.68
2018-07-21T05:24:49.685Z,18.87
2018-07-21T05:25:49.673Z,18.89
2018-07-21T05:26:49.660Z,19.02
2018-07-21T05:27:49.665Z,19.05
2018-07-21T05:28:49.639Z,19.13
2018-07-21T05:29:49.628Z,19.27
2018-07-21T05:30:49.616Z,19.35
2018-07-21T05:31:49.604Z,19.45
2018-07-21T05:32:49.606Z,19.61
2018-07-21T05:33:49.588Z,19.72
2018-07-21T05:34:49.572Z,19.83
2018-07-21T05:35:49.559Z,20.05
2018-07-21T05:36:49.555Z,20.08
2018-07-21T05:37:49.550Z,20.35
2018-07-21T05:38:49.532Z,20.48
2018-07-21T05:39:49.523Z,20.50
2018-07-21T05:40:49.504Z,20.73
2018-07-21T05:41:49.492Z,20.83
2018-07-21T05:42:49.498Z,21.06
2018-07-21T05:43:49.472Z,21.13
2018-07-21T05:44:49.465Z,21.24
2018-07-21T05:45:49.457Z,21.45
2018-07-21T05:46:49.448Z,21.55
2018-07-21T05:47:49.437Z,21.56
2018-07-21T05:48:49.419Z,21.67
2018-07-21T05:49:49.408Z,21.90
2018-07-21T05:50:49.395Z,21.99
2018-07-21T05:51:49.386Z,22.15
2018-07-21T05:52:49.399Z,22.19
2018-07-21T05:53:49.361Z,22.36
2018-07-21T05:54:49.352Z,22.44
2018-07-21T05:55:49.338Z,22.61
2018-07-21T05:56:49.329Z,22.75
2018-07-21T05:57:49.323Z,22.88
2018-07-21T05:58:49.318Z,22.88
2018-07-21T05:59:49.295Z,22.93
2018-07-21T06:00:49.281Z,23.09
2018-07-21T06:01:49.271Z,23.15
2018-07-21T06:02:49.387Z,23.25
2018-07-21T06:03:49.267Z,23.26
2018-07-21T06:04:49.240Z,23.37
2018-07-21T06:05:49.229Z,23.42
2018-07-21T06:06:49.217Z,23.39
2018-07-21T06:07:49.206Z,23.42
2018-07-21T06:08:49.209Z,23.47
2018-07-21T06:09:49.189Z,23.45
2018-07-21T06:10:49.173Z,23.50
2018-07-21T06:11:49.162Z,23.53
2018-07-21T06:12:49.151Z,23.54
2018-07-21T06:13:49.153Z,23.60
2018-07-21T06:14:49.129Z,23.59
2018-07-21T06:15:49.124Z,23.62
2018-07-21T06:16:49.107Z,23.63
2018-07-21T06:17:49.097Z,23.68
2018-07-21T06:18:49.102Z,23.74
2018-07-21T06:19:49.073Z,23.82
2018-07-21T06:20:49.061Z,23.82
2018-07-21T06:21:49.061Z,23.81
2018-07-21T06:22:49.040Z,23.79
2018-07-21T06:23:49.090Z,23.96
2018-07-21T06:24:49.019Z,23.86
2018-07-21T06:25:49.006Z,23.92
2018-07-21T06:26:48.993Z,23.97
2018-07-21T06:27:48.994Z,23.97
2018-07-21T06:28:48.984Z,23.94
2018-07-21T06:29:48.960Z,24.05
2018-07-21T06:30:48.949Z,24.21
2018-07-21T06:31:48.938Z,24.29
2018-07-21T06:32:48.971Z,24.45
2018-07-21T06:33:48.933Z,24.53
2018-07-21T06:34:48.908Z,24.63
2018-07-21T06:35:55.938Z,24.75
2018-07-21T06:36:48.884Z,24.84
2018-07-21T06:37:48.872Z,25.01
2018-07-21T06:38:48.869Z,25.04
2018-07-21T06:39:48.844Z,25.17
2018-07-21T06:40:48.834Z,25.34
2018-07-21T06:41:48.832Z,25.44
2018-07-21T06:42:48.816Z,25.53
2018-07-21T06:43:48.817Z,25.60
2018-07-21T06:44:48.798Z,25.72
2018-07-21T06:45:48.785Z,25.69
2018-07-21T06:46:48.768Z,25.69
2018-07-21T06:47:48.761Z,25.74
2018-07-21T06:48:48.759Z,25.82
2018-07-21T06:49:48.750Z,25.85
2018-07-21T06:50:48.727Z,25.93
2018-07-21T06:51:48.726Z,26.04
2018-07-21T06:52:48.704Z,26.01
2018-07-21T06:53:48.706Z,26.12
2018-07-21T06:54:48.687Z,26.09
2018-07-21T06:55:48.674Z,25.98
2018-07-21T06:56:48.658Z,25.90
2018-07-21T06:57:48.654Z,25.83
2018-07-21T06:58:48.665Z,25.61
2018-07-21T06:59:48.627Z,25.60
2018-07-21T07:00:48.617Z,25.56
2018-07-21T07:01:48.610Z,25.49
2018-07-21T07:02:48.606Z,25.42
2018-07-21T07:03:48.591Z,25.29
2018-07-21T07:04:48.582Z,25.35
2018-07-21T07:05:48.565Z,25.26
2018-07-21T07:06:48.561Z,25.27
2018-07-21T07:07:48.541Z,25.19
2018-07-21T07:08:48.533Z,25.14
2018-07-21T07:09:48.514Z,25.19
2018-07-21T07:10:48.508Z,25.14
2018-07-21T07:11:48.492Z,25.24
2018-07-21T07:12:48.492Z,25.12
2018-07-21T07:13:48.482Z,25.16
2018-07-21T07:14:48.458Z,25.16
2018-07-21T07:15:48.454Z,25.20
2018-07-21T07:16:48.436Z,25.19
2018-07-21T07:17:48.467Z,25.23
2018-07-21T07:18:48.424Z,25.31
2018-07-21T07:19:48.409Z,25.39
2018-07-21T07:20:48.403Z,25.29
2018-07-21T07:21:48.384Z,25.31
2018-07-21T07:22:48.371Z,25.31
2018-07-21T07:23:48.384Z,25.38
2018-07-21T07:24:48.352Z,25.34
2018-07-21T07:25:48.343Z,25.30
2018-07-21T07:26:48.327Z,25.34
2018-07-21T07:27:48.314Z,25.38
2018-07-21T07:28:48.344Z,25.29
2018-07-21T07:29:48.296Z,25.30
2018-07-21T07:30:48.281Z,25.38
2018-07-21T07:31:48.271Z,25.42
2018-07-21T07:32:48.262Z,25.42
2018-07-21T07:33:48.249Z,25.45
2018-07-21T07:34:48.267Z,25.45
2018-07-21T07:35:48.227Z,25.41
2018-07-21T07:36:48.216Z,25.44
2018-07-21T07:37:48.207Z,25.39
2018-07-21T07:38:48.199Z,25.38
2018-07-21T07:39:48.199Z,25.42
2018-07-21T07:40:48.171Z,25.44
2018-07-21T07:41:48.168Z,25.46
2018-07-21T07:42:48.149Z,25.49
2018-07-21T07:43:48.139Z,25.45
2018-07-21T07:44:48.142Z,25.45
2018-07-21T07:45:48.117Z,25.57
2018-07-21T07:46:48.111Z,25.56
2018-07-21T07:47:48.102Z,25.67
2018-07-21T07:48:48.086Z,25.74
2018-07-21T07:49:48.081Z,25.79
2018-07-21T07:50:48.062Z,25.79
2018-07-21T07:51:48.049Z,25.94
2018-07-21T07:52:48.038Z,25.97
2018-07-21T07:53:48.036Z,26.03
2018-07-21T07:54:48.035Z,26.11
2018-07-21T07:55:48.005Z,26.12
2018-07-21T07:56:47.996Z,26.12
2018-07-21T07:57:47.983Z,26.16
2018-07-21T07:58:47.973Z,26.20
2018-07-21T07:59:47.970Z,26.28
2018-07-21T08:00:47.960Z,26.31
2018-07-21T08:01:47.939Z,26.38
2018-07-21T08:02:47.931Z,26.36
2018-07-21T08:03:47.919Z,26.56
2018-07-21T08:04:47.923Z,26.51
2018-07-21T08:05:47.893Z,26.56
2018-07-21T08:06:47.888Z,26.50
2018-07-21T08:07:47.872Z,26.61
2018-07-21T08:08:47.865Z,26.69
2018-07-21T08:09:47.866Z,26.78
2018-07-21T08:10:47.843Z,26.84
2018-07-21T08:11:47.830Z,26.86
2018-07-21T08:12:47.820Z,26.90
2018-07-21T08:13:47.820Z,26.98
2018-07-21T08:14:47.811Z,27.15
2018-07-21T08:15:47.790Z,27.21
2018-07-21T08:16:47.788Z,27.43
2018-07-21T08:17:47.765Z,27.55
2018-07-21T08:18:47.769Z,27.80
2018-07-21T08:19:47.758Z,27.86
2018-07-21T08:20:47.732Z,28.02
2018-07-21T08:21:47.719Z,28.05
2018-07-21T08:22:47.706Z,28.02
2018-07-21T08:23:47.695Z,28.09
2018-07-21T08:24:47.696Z,28.11
2018-07-21T08:25:47.684Z,28.18
2018-07-21T08:26:47.663Z,28.13
2018-07-21T08:27:47.653Z,28.03
2018-07-21T08:28:47.650Z,28.11
2018-07-21T08:29:47.643Z,28.02
2018-07-21T08:30:47.619Z,28.05
2018-07-21T08:31:47.619Z,27.88
2018-07-21T08:32:47.604Z,27.87
2018-07-21T08:33:47.584Z,27.84
2018-07-21T08:34:47.584Z,27.78
2018-07-21T08:35:47.576Z,27.74
2018-07-21T08:36:47.553Z,27.68
2018-07-21T08:37:47.538Z,27.71
2018-07-21T08:38:47.542Z,27.58
2018-07-21T08:39:47.529Z,27.63
2018-07-21T08:40:47.517Z,27.62
2018-07-21T08:41:47.494Z,27.49
2018-07-21T08:42:47.487Z,27.50
2018-07-21T08:43:47.474Z,27.45
2018-07-21T08:44:47.508Z,27.48
2018-07-21T08:45:47.456Z,27.52
2018-07-21T08:46:47.438Z,27.50
2018-07-21T08:47:47.435Z,27.46
2018-07-21T08:48:47.417Z,27.50
2018-07-21T08:49:47.491Z,27.53
2018-07-21T08:50:47.402Z,27.53
2018-07-21T08:51:47.384Z,27.49
2018-07-21T08:52:47.371Z,27.58
2018-07-21T08:53:47.363Z,27.58
2018-07-21T08:54:47.372Z,27.49
2018-07-21T08:55:47.363Z,27.49
2018-07-21T08:56:47.334Z,27.49
2018-07-21T08:57:47.319Z,27.48
2018-07-21T08:58:47.306Z,27.50
2018-07-21T08:59:47.295Z,27.53
2018-07-21T09:00:47.294Z,27.58
2018-07-21T09:01:47.273Z,27.59
2018-07-21T09:02:47.268Z,27.53
2018-07-21T09:03:47.254Z,27.58
2018-07-21T09:04:47.242Z,27.53
2018-07-21T09:05:47.294Z,27.53
2018-07-21T09:06:47.220Z,27.53
2018-07-21T09:07:47.219Z,27.55
2018-07-21T09:08:47.192Z,27.52
2018-07-21T09:09:47.185Z,27.43
2018-07-21T09:10:47.191Z,27.53
2018-07-21T09:11:47.161Z,27.48
2018-07-21T09:12:47.148Z,27.61
2018-07-21T09:13:47.145Z,27.52
2018-07-21T09:14:47.128Z,27.63
2018-07-21T09:15:47.139Z,27.61
2018-07-21T09:16:47.107Z,27.53
2018-07-21T09:17:47.093Z,27.59
2018-07-21T09:18:47.084Z,27.52
2018-07-21T09:19:47.072Z,27.52
2018-07-21T09:20:47.069Z,27.58
2018-07-21T09:21:47.050Z,27.61
2018-07-21T09:22:47.046Z,27.68
2018-07-21T09:23:47.027Z,27.68
2018-07-21T09:24:47.020Z,27.72
2018-07-21T09:25:47.035Z,27.66
2018-07-21T09:26:46.998Z,27.63
2018-07-21T09:27:46.984Z,27.62
2018-07-21T09:28:46.984Z,27.77
2018-07-21T09:29:46.963Z,27.76
2018-07-21T09:30:46.962Z,27.78
2018-07-21T09:31:46.942Z,27.81
2018-07-21T09:32:46.938Z,27.90
2018-07-21T09:33:46.918Z,27.84
2018-07-21T09:34:46.911Z,28.05
2018-07-21T09:35:46.921Z,28.18
2018-07-21T09:36:46.884Z,28.15
2018-07-21T09:37:46.874Z,28.09
2018-07-21T09:38:46.865Z,27.99
2018-07-21T09:39:46.854Z,27.88
2018-07-21T09:40:46.876Z,27.93
2018-07-21T09:41:46.850Z,27.53
2018-07-21T09:42:46.817Z,26.34
2018-07-21T09:43:46.811Z,26.11
2018-07-21T09:44:46.797Z,26.01
2018-07-21T09:45:46.851Z,25.91
2018-07-21T09:46:46.776Z,26.21
2018-07-21T09:47:46.777Z,26.21
2018-07-21T09:48:46.751Z,26.73
2018-07-21T09:49:46.750Z,26.91
2018-07-21T09:50:46.755Z,27.06
2018-07-21T09:51:46.718Z,27.03
2018-07-21T09:52:46.713Z,26.90
2018-07-21T09:53:46.694Z,27.20
2018-07-21T09:54:46.685Z,27.61
2018-07-21T09:55:46.778Z,27.81
2018-07-21T09:56:46.662Z,27.52
2018-07-21T09:57:46.653Z,27.15
2018-07-21T09:58:46.641Z,26.90
2018-07-21T09:59:46.629Z,26.94
2018-07-21T10:00:46.634Z,27.08
2018-07-21T10:01:46.607Z,27.55
2018-07-21T10:02:46.602Z,27.77
2018-07-21T10:03:46.589Z,28.11
2018-07-21T10:04:46.645Z,27.72
2018-07-21T10:05:46.608Z,27.98
2018-07-21T10:06:46.559Z,29.27
2018-07-21T10:07:46.545Z,30.46
2018-07-21T10:08:46.533Z,30.32
2018-07-21T10:09:46.522Z,30.49
2018-07-21T10:10:46.516Z,30.57
2018-07-21T10:11:46.500Z,31.40
2018-07-21T10:12:46.494Z,31.27
2018-07-21T10:13:46.477Z,31.47
2018-07-21T10:14:46.471Z,32.12
2018-07-21T10:15:46.460Z,32.43
2018-07-21T10:16:46.448Z,33.63
2018-07-21T10:17:46.439Z,33.52
2018-07-21T10:18:46.420Z,32.66
2018-07-21T10:19:46.409Z,31.74
2018-07-21T10:20:46.420Z,31.09
2018-07-21T10:21:46.415Z,30.19
2018-07-21T10:22:46.397Z,29.41
2018-07-21T10:23:46.365Z,29.55
2018-07-21T10:24:46.358Z,29.79
2018-07-21T10:25:46.350Z,31.69
2018-07-21T10:26:46.354Z,33.81
2018-07-21T10:27:46.323Z,33.92
2018-07-21T10:28:46.311Z,35.58
2018-07-21T10:29:46.305Z,37.09
2018-07-21T10:30:46.302Z,37.47
2018-07-21T10:31:46.296Z,37.60
2018-07-21T10:32:46.271Z,36.34
2018-07-21T10:33:46.265Z,35.24
2018-07-21T10:34:46.252Z,34.37
2018-07-21T10:35:46.237Z,34.21
2018-07-21T10:36:46.237Z,35.00
2018-07-21T10:37:46.224Z,36.21
2018-07-21T10:38:46.213Z,36.12
2018-07-21T10:39:46.196Z,36.15
2018-07-21T10:40:46.185Z,35.49
2018-07-21T10:41:46.187Z,36.18
2018-07-21T10:42:46.165Z,36.62
2018-07-21T10:43:46.154Z,37.05
2018-07-21T10:44:46.183Z,37.99
2018-07-21T10:45:46.141Z,35.52
2018-07-21T10:46:46.142Z,35.17
2018-07-21T10:47:46.111Z,35.56
2018-07-21T10:48:46.106Z,35.91
2018-07-21T10:49:46.089Z,37.47
2018-07-21T10:50:46.101Z,39.43
2018-07-21T10:51:46.080Z,40.11
2018-07-21T10:52:46.057Z,40.90
2018-07-21T10:53:46.058Z,39.32
2018-07-21T10:54:46.039Z,38.49
2018-07-21T10:55:46.024Z,38.26
2018-07-21T10:56:46.033Z,37.97
2018-07-21T10:57:46.010Z,39.28
2018-07-21T10:58:46.000Z,41.51
2018-07-21T10:59:45.987Z,41.51
2018-07-21T11:00:45.979Z,42.01
2018-07-21T11:01:45.987Z,41.05
2018-07-21T11:02:45.959Z,39.31
2018-07-21T11:03:45.944Z,38.37
2018-07-21T11:04:45.936Z,37.90
2018-07-21T11:05:45.930Z,37.50
2018-07-21T11:06:45.960Z,37.78
2018-07-21T11:07:45.909Z,38.59
2018-07-21T11:08:45.901Z,38.22
2018-07-21T11:09:45.882Z,37.45
2018-07-21T11:10:45.872Z,37.49
2018-07-21T11:11:45.885Z,36.68
2018-07-21T11:12:45.859Z,35.03
2018-07-21T11:13:45.858Z,33.33
2018-07-21T11:14:45.846Z,32.84
2018-07-21T11:15:45.818Z,31.94
2018-07-21T11:16:45.818Z,32.19
2018-07-21T11:17:45.800Z,31.64
2018-07-21T11:18:45.791Z,32.12
2018-07-21T11:19:45.775Z,32.44
2018-07-21T11:20:45.767Z,32.96
2018-07-21T11:21:45.772Z,32.47
2018-07-21T11:22:45.746Z,31.62
2018-07-21T11:23:45.730Z,30.68
2018-07-21T11:24:45.720Z,30.30
2018-07-21T11:25:45.710Z,30.64
2018-07-21T11:26:45.710Z,31.07
2018-07-21T11:27:45.687Z,31.42
2018-07-21T11:28:45.873Z,31.67
2018-07-21T11:29:45.665Z,31.79
2018-07-21T11:30:45.658Z,31.95
2018-07-21T11:31:45.652Z,32.07
2018-07-21T11:32:45.631Z,32.09
2018-07-21T11:33:45.623Z,32.17
2018-07-21T11:34:45.702Z,32.22
2018-07-21T11:35:45.799Z,32.22
2018-07-21T11:36:45.667Z,32.24
2018-07-21T11:37:45.578Z,32.34
2018-07-21T11:38:45.573Z,32.35
2018-07-21T11:39:45.559Z,32.44
2018-07-21T11:40:45.548Z,32.46
2018-07-21T11:41:45.543Z,32.44
2018-07-21T11:42:45.544Z,32.46
2018-07-21T11:43:45.853Z,32.50
2018-07-21T11:44:45.503Z,32.47
2018-07-21T11:45:45.502Z,32.44
2018-07-21T11:46:45.490Z,32.49
2018-07-21T11:47:45.469Z,32.43
2018-07-21T11:48:45.718Z,32.43
2018-07-21T11:49:45.448Z,32.47
2018-07-21T11:50:45.452Z,32.46
2018-07-21T11:51:45.456Z,32.44
2018-07-21T11:52:45.413Z,32.40
2018-07-21T11:53:45.404Z,32.29
2018-07-21T11:54:45.397Z,32.21
2018-07-21T11:55:45.386Z,32.24
2018-07-21T11:56:45.558Z,32.16
2018-07-21T11:57:45.921Z,32.14
2018-07-21T11:58:45.358Z,32.13
2018-07-21T11:59:45.412Z,32.06
2018-07-21T12:00:45.329Z,32.17
2018-07-21T12:01:45.372Z,32.17
2018-07-21T12:02:45.316Z,32.12
2018-07-21T12:03:45.291Z,32.09
2018-07-21T12:04:45.286Z,32.06
2018-07-21T12:05:45.344Z,31.88
2018-07-21T12:06:45.260Z,31.75
2018-07-21T12:07:45.267Z,31.79
2018-07-21T12:08:45.246Z,31.68
2018-07-21T12:09:45.228Z,31.71
2018-07-21T12:10:45.219Z,31.67
2018-07-21T12:11:45.216Z,31.65
2018-07-21T12:12:45.203Z,31.64
2018-07-21T12:13:45.195Z,31.64
2018-07-21T12:14:45.202Z,31.59
2018-07-21T12:15:45.161Z,31.65
2018-07-21T12:16:45.151Z,31.64
2018-07-21T12:17:45.150Z,31.79
2018-07-21T12:18:45.133Z,31.91
2018-07-21T12:19:45.182Z,31.94
2018-07-21T12:20:45.109Z,31.98
2018-07-21T12:21:45.097Z,31.97
2018-07-21T12:22:45.126Z,31.97
2018-07-21T12:23:45.129Z,31.87
2018-07-21T12:24:45.111Z,31.88
2018-07-21T12:25:45.054Z,32.06
2018-07-21T12:26:45.078Z,32.06
2018-07-21T12:27:45.091Z,32.06
2018-07-21T12:28:45.037Z,31.99
2018-07-21T12:29:45.007Z,32.06
2018-07-21T12:30:44.999Z,32.10
2018-07-21T12:31:44.986Z,32.14
2018-07-21T12:32:44.988Z,32.19
2018-07-21T12:33:45.022Z,32.16
2018-07-21T12:34:44.953Z,32.25
2018-07-21T12:35:44.955Z,32.22
2018-07-21T12:36:45.069Z,32.22
2018-07-21T12:37:44.933Z,32.39
2018-07-21T12:38:44.915Z,32.59
2018-07-21T12:39:44.898Z,32.69
2018-07-21T12:40:44.887Z,32.90
2018-07-21T12:41:44.876Z,32.93
2018-07-21T12:42:44.877Z,32.99
2018-07-21T12:43:44.853Z,32.85
2018-07-21T12:44:44.850Z,32.71
2018-07-21T12:45:44.835Z,32.65
2018-07-21T12:46:44.827Z,32.56
2018-07-21T12:47:44.900Z,32.44
2018-07-21T12:48:44.805Z,32.50
2018-07-21T12:49:44.797Z,32.66
2018-07-21T12:50:44.781Z,32.81
2018-07-21T12:51:44.774Z,32.91
2018-07-21T12:52:44.770Z,33.06